Venividivici — ZCPL9 — position and weather

sailwx.info

Track history (hours):
 
Tides and Currents Weather Stations Pressure Air Temp Water Temp Dewpoint Dewpoint Depression Visibility Wind Speed Wind Dir Waves Ship Positions

Venividivici

Last reported at 2015-Aug-28 16:21 UTC. Time now 2015-Aug-29 09:19 UTC.
Position N 43°16' E 006°38'.

Length 40 m; draft 2 m.

MMSI: 319081000.

Date/timePositionNaut miles runAvg speedWind from/ knotsBaromVisibWave heightAir tempDewpointWater temp
2015-Aug-28 16:21N 43°16' E 006°38'3 1.0
2015-Aug-28 13:31N 43°14' E 006°40'3 0.1
2015-Aug-27 16:30N 43°16' E 006°38'3 2.0
2015-Aug-27 15:03N 43°14' E 006°40'0 0.4
2015-Aug-27 14:33N 43°14' E 006°40'3 0.1
2015-Aug-26 16:04N 43°16' E 006°38'3 6.6
2015-Aug-26 15:33N 43°15' E 006°43'3 2.4
2015-Aug-26 14:28N 43°14' E 006°40'0 0.0
2015-Aug-26 13:29N 43°14' E 006°40'0 0.0
2015-Aug-26 12:33N 43°14' E 006°40'  
2015-Aug-22 15:33N 43°16' E 006°38'3 3.0
2015-Aug-22 14:30N 43°14' E 006°40'0 0.0
2015-Aug-22 13:30N 43°14' E 006°40'0 0.0
2015-Aug-22 12:19N 43°14' E 006°40'3 0.1
2015-Aug-20 13:08N 43°17' E 006°38'1423.0
2015-Aug-20 12:33N 43°25' E 006°54'10 4.2
2015-Aug-20 10:12N 43°33' E 007°01'0 0.0
2015-Aug-20 09:30N 43°33' E 007°01'0 0.0
2015-Aug-20 08:25N 43°33' E 007°01'0 0.0
2015-Aug-20 07:25N 43°33' E 007°01'0 0.0
2015-Aug-20 06:32N 43°33' E 007°01'0 0.0
2015-Aug-20 05:33N 43°33' E 007°01'0 0.0
2015-Aug-20 04:33N 43°33' E 007°01'0 0.0
2015-Aug-20 03:28N 43°33' E 007°01'0 0.0
2015-Aug-20 02:32N 43°33' E 007°01'0 0.0
2015-Aug-20 01:29N 43°33' E 007°01'0 0.0
2015-Aug-20 00:30N 43°33' E 007°01'0 0.0
2015-Aug-19 23:31N 43°33' E 007°01'0 0.0
2015-Aug-19 21:05N 43°33' E 007°01'0 0.0
2015-Aug-19 20:33N 43°33' E 007°01'0 0.0
2015-Aug-19 18:28N 43°33' E 007°01'0 0.0
2015-Aug-19 08:23N 43°33' E 007°01'  
Track history (hours):
 
Tides and Currents Weather Stations Pressure Air Temp Water Temp Dewpoint Dewpoint Depression Visibility Wind Speed Wind Dir Waves Ship Positions

Venividivici

Last reported at 2015-Aug-28 16:21 UTC. Time now 2015-Aug-29 09:19 UTC.
Position N 43°16' E 006°38'.

Length 40 m; draft 2 m.

MMSI: 319081000.

Date/timePositionNaut miles runAvg speedWind from/ knotsBaromVisibWave heightAir tempDewpointWater temp
2015-Aug-28 16:21N 43°16' E 006°38'3 1.0
2015-Aug-28 13:31N 43°14' E 006°40'3 0.1
2015-Aug-27 16:30N 43°16' E 006°38'3 2.0
2015-Aug-27 15:03N 43°14' E 006°40'0 0.4
2015-Aug-27 14:33N 43°14' E 006°40'3 0.1
2015-Aug-26 16:04N 43°16' E 006°38'3 6.6
2015-Aug-26 15:33N 43°15' E 006°43'3 2.4
2015-Aug-26 14:28N 43°14' E 006°40'0 0.0
2015-Aug-26 13:29N 43°14' E 006°40'0 0.0
2015-Aug-26 12:33N 43°14' E 006°40'  
2015-Aug-22 15:33N 43°16' E 006°38'3 3.0
2015-Aug-22 14:30N 43°14' E 006°40'0 0.0
2015-Aug-22 13:30N 43°14' E 006°40'0 0.0
2015-Aug-22 12:19N 43°14' E 006°40'3 0.1
2015-Aug-20 13:08N 43°17' E 006°38'1423.0
2015-Aug-20 12:33N 43°25' E 006°54'10 4.2
2015-Aug-20 10:12N 43°33' E 007°01'0 0.0
2015-Aug-20 09:30N 43°33' E 007°01'0 0.0
2015-Aug-20 08:25N 43°33' E 007°01'0 0.0
2015-Aug-20 07:25N 43°33' E 007°01'0 0.0
2015-Aug-20 06:32N 43°33' E 007°01'0 0.0
2015-Aug-20 05:33N 43°33' E 007°01'0 0.0
2015-Aug-20 04:33N 43°33' E 007°01'0 0.0
2015-Aug-20 03:28N 43°33' E 007°01'0 0.0
2015-Aug-20 02:32N 43°33' E 007°01'0 0.0
2015-Aug-20 01:29N 43°33' E 007°01'0 0.0
2015-Aug-20 00:30N 43°33' E 007°01'0 0.0
2015-Aug-19 23:31N 43°33' E 007°01'0 0.0
2015-Aug-19 21:05N 43°33' E 007°01'0 0.0
2015-Aug-19 20:33N 43°33' E 007°01'0 0.0
2015-Aug-19 18:28N 43°33' E 007°01'0 0.0
2015-Aug-19 08:23N 43°33' E 007°01'  

Dump ship's entire track history